Reidville, South Carolina
Current Conditions -  °F | °C
As of 10:53 AM on Friday 24 Oct 2014 (Local Time) from KGSP Reporting Station
Clear Clear  
Wind Chill: 59°   Ceiling: Unl
Heat Index: 59°   Visibility: 10mi
Dew Point: 42°   Wind: 5mph
Humidity: 53%   Direction: 180°S
Pressure: 30.09"   Gusts: NA
Location:  34.86°N, 82.11°W
Report Text: KGSP 241453Z 18004KT 10SM CLR 15/06 A3009 RMK AO2 SLP183 T01500056 53010
Loading
Personal Weather Stations






























Interactive Weather Map
Tropical Storm Tracking
New forecast layout! Learn more

10-Day Weather Forecast

Advertisements
Track Severe Weather on mobile